createdAt,value
2019-06-07T00:00:37.303Z,86.88
2019-06-07T00:01:20.762Z,87.38
2019-06-07T00:02:16.834Z,87.49
2019-06-07T00:03:27.426Z,87.70
2019-06-07T00:04:21.310Z,87.84
2019-06-07T00:05:19.597Z,88.04
2019-06-07T00:06:24.370Z,88.35
2019-06-07T00:07:21.448Z,88.65
2019-06-07T00:08:24.880Z,89.31
2019-06-07T00:09:22.107Z,89.41
2019-06-07T00:10:35.260Z,89.92
2019-06-07T00:11:20.462Z,89.92
2019-06-07T00:12:17.656Z,89.82
2019-06-07T00:13:19.837Z,89.72
2019-06-07T00:14:18.837Z,89.82
2019-06-07T00:15:26.894Z,89.72
2019-06-07T00:16:22.802Z,89.72
2019-06-07T00:17:20.106Z,89.31
2019-06-07T00:18:25.326Z,88.90
2019-06-07T00:19:18.958Z,88.35
2019-06-07T00:20:22.620Z,88.04
2019-06-07T00:21:20.150Z,87.84
2019-06-07T00:22:29.649Z,87.94
2019-06-07T00:23:20.687Z,87.73
2019-06-07T00:24:18.716Z,88.14
2019-06-07T00:25:22.843Z,88.14
2019-06-07T00:26:21.138Z,88.14
2019-06-07T00:27:18.300Z,88.04
2019-06-07T00:28:17.377Z,88.24
2019-06-07T00:29:18.538Z,88.24
2019-06-07T00:30:40.114Z,88.70
2019-06-07T00:31:22.359Z,88.90
2019-06-07T00:32:19.984Z,89.31
2019-06-07T00:33:19.251Z,89.51
2019-06-07T00:34:20.039Z,89.82
2019-06-07T00:35:20.612Z,89.97
2019-06-07T00:36:18.237Z,90.47
2019-06-07T00:37:19.356Z,90.78
2019-06-07T00:38:18.964Z,91.09
2019-06-07T00:39:21.897Z,91.33
2019-06-07T00:40:27.130Z,91.03
2019-06-07T00:41:20.213Z,91.23
2019-06-07T00:42:17.482Z,91.44
2019-06-07T00:43:17.598Z,91.95
2019-06-07T00:44:19.909Z,91.85
2019-06-07T00:45:21.093Z,91.89
2019-06-07T00:46:18.139Z,91.99
2019-06-07T00:47:18.735Z,91.89
2019-06-07T00:48:27.467Z,92.10
2019-06-07T00:49:32.349Z,92.30
2019-06-07T00:50:21.919Z,92.91
2019-06-07T00:51:18.977Z,92.96
2019-06-07T00:52:58.580Z,93.06
2019-06-07T00:53:22.695Z,92.96
2019-06-07T00:54:19.822Z,93.47
2019-06-07T00:55:18.135Z,93.57
2019-06-07T00:56:16.357Z,93.67
2019-06-07T00:57:16.742Z,93.88
2019-06-07T00:58:17.964Z,94.08
2019-06-07T00:59:19.140Z,93.88
2019-06-07T01:00:21.890Z,93.57
2019-06-07T01:01:20.099Z,93.67
2019-06-07T01:02:18.209Z,93.88
2019-06-07T01:03:17.449Z,94.08
2019-06-07T01:04:19.379Z,93.98
2019-06-07T01:05:20.373Z,93.98
2019-06-07T01:06:22.639Z,93.67
2019-06-07T01:07:18.748Z,93.67
2019-06-07T01:08:21.519Z,93.57
2019-06-07T01:09:17.775Z,93.16
2019-06-07T01:10:17.346Z,93.16
2019-06-07T01:11:20.612Z,92.75
2019-06-07T01:12:19.442Z,92.40
2019-06-07T01:13:17.209Z,92.19
2019-06-07T01:14:20.316Z,91.78
2019-06-07T01:15:20.507Z,91.89
2019-06-07T01:16:18.771Z,92.10
2019-06-07T01:17:30.364Z,91.78
2019-06-07T01:18:38.183Z,91.69
2019-06-07T01:19:18.751Z,91.69
2019-06-07T01:20:16.711Z,91.58
2019-06-07T01:21:19.922Z,91.69
2019-06-07T01:22:18.402Z,91.58
2019-06-07T01:23:57.873Z,91.58
2019-06-07T01:24:17.586Z,91.99
2019-06-07T01:25:15.920Z,92.19
2019-06-07T01:26:18.938Z,91.99
2019-06-07T01:27:17.078Z,92.10
2019-06-07T01:28:16.666Z,92.55
2019-06-07T01:29:17.730Z,92.75
2019-06-07T01:30:16.215Z,92.96
2019-06-07T01:31:17.728Z,92.96
2019-06-07T01:32:17.479Z,92.19
2019-06-07T01:33:15.967Z,92.19
2019-06-07T01:34:16.122Z,91.99
2019-06-07T01:35:16.595Z,92.30
2019-06-07T01:36:17.885Z,92.19
2019-06-07T01:37:16.851Z,91.48
2019-06-07T01:38:17.229Z,90.92
2019-06-07T01:39:18.458Z,90.72
2019-06-07T01:40:17.229Z,90.72
2019-06-07T01:41:17.385Z,90.52
2019-06-07T01:42:18.167Z,90.62
2019-06-07T01:43:17.009Z,90.62
2019-06-07T01:44:17.670Z,90.62
2019-06-07T01:45:18.047Z,90.11
2019-06-07T01:46:15.844Z,90.00
2019-06-07T01:47:17.693Z,89.90
2019-06-07T01:48:20.729Z,90.00
2019-06-07T01:49:15.713Z,90.00
2019-06-07T01:50:17.064Z,90.00
2019-06-07T01:51:15.718Z,90.00
2019-06-07T01:52:16.620Z,90.11
2019-06-07T01:53:15.595Z,90.11
2019-06-07T01:55:18.649Z,90.21
2019-06-07T01:56:18.409Z,90.21
2019-06-07T01:57:31.034Z,90.31
2019-06-07T01:58:17.051Z,90.31
2019-06-07T01:59:15.548Z,90.41
2019-06-07T02:00:15.668Z,90.52
2019-06-07T02:01:15.557Z,90.66
2019-06-07T02:02:15.484Z,90.77
2019-06-07T02:03:15.477Z,91.07
2019-06-07T02:04:15.720Z,91.17
2019-06-07T02:05:15.469Z,91.27
2019-06-07T02:06:15.967Z,91.38
2019-06-07T02:07:15.445Z,91.48
2019-06-07T02:08:15.439Z,91.48
2019-06-07T02:09:15.427Z,91.58
2019-06-07T02:10:15.464Z,91.58
2019-06-07T02:11:20.926Z,91.78
2019-06-07T02:12:25.533Z,91.89
2019-06-07T02:13:16.375Z,91.99
2019-06-07T02:14:15.379Z,92.24
2019-06-07T02:15:15.398Z,92.24
2019-06-07T02:16:15.345Z,92.34
2019-06-07T02:17:15.542Z,92.34
2019-06-07T02:18:15.344Z,92.44
2019-06-07T02:19:15.318Z,92.55
2019-06-07T02:20:16.651Z,92.85
2019-06-07T02:21:15.405Z,92.96
2019-06-07T02:22:15.274Z,93.06
2019-06-07T02:23:15.316Z,93.26
2019-06-07T02:24:15.386Z,93.41
2019-06-07T02:26:16.246Z,93.30
2019-06-07T02:27:15.246Z,93.41
2019-06-07T02:28:29.896Z,93.62
2019-06-07T02:29:16.228Z,93.62
2019-06-07T02:31:18.091Z,93.62
2019-06-07T02:32:15.178Z,93.71
2019-06-07T02:33:15.390Z,93.71
2019-06-07T02:34:15.179Z,93.82
2019-06-07T02:35:15.200Z,93.82
2019-06-07T02:36:15.189Z,93.82
2019-06-07T02:37:15.173Z,93.82
2019-06-07T02:38:15.297Z,93.82
2019-06-07T02:39:15.946Z,93.82
2019-06-07T02:40:15.075Z,93.71
2019-06-07T02:41:15.076Z,93.51
2019-06-07T02:42:15.071Z,93.51
2019-06-07T02:43:15.232Z,93.37
2019-06-07T02:44:15.317Z,93.26
2019-06-07T02:45:15.056Z,93.16
2019-06-07T02:46:26.542Z,93.06
2019-06-07T02:47:15.996Z,92.96
2019-06-07T02:48:24.500Z,92.85
2019-06-07T02:49:16.715Z,92.65
2019-06-07T02:50:16.179Z,92.65
2019-06-07T02:51:15.149Z,92.55
2019-06-07T02:52:15.111Z,92.40
2019-06-07T02:53:15.091Z,92.19
2019-06-07T02:54:15.043Z,92.19
2019-06-07T02:55:15.218Z,92.10
2019-06-07T02:57:16.014Z,92.30
2019-06-07T02:58:14.971Z,92.30
2019-06-07T02:59:14.900Z,92.44
2019-06-07T03:00:41.328Z,92.55
2019-06-07T03:01:16.060Z,92.96
2019-06-07T03:02:15.090Z,93.06
2019-06-07T03:03:15.008Z,93.26
2019-06-07T03:04:14.944Z,93.37
2019-06-07T03:05:14.837Z,93.47
2019-06-07T03:06:15.001Z,93.62
2019-06-07T03:07:15.079Z,93.51
2019-06-07T03:08:14.873Z,93.62
2019-06-07T03:09:14.875Z,93.71
2019-06-07T03:10:14.789Z,93.92
2019-06-07T03:11:14.812Z,93.82
2019-06-07T03:12:14.770Z,93.92
2019-06-07T03:13:14.821Z,94.02
2019-06-07T03:14:14.797Z,94.02
2019-06-07T03:15:32.134Z,94.02
2019-06-07T03:16:15.755Z,94.23
2019-06-07T03:17:14.946Z,94.48
2019-06-07T03:18:14.734Z,94.48
2019-06-07T03:19:14.706Z,94.43
2019-06-07T03:20:15.548Z,94.58
2019-06-07T03:21:15.558Z,94.68
2019-06-07T03:22:14.718Z,94.78
2019-06-07T03:23:14.730Z,94.89
2019-06-07T03:24:14.698Z,94.64
2019-06-07T03:25:14.699Z,94.64
2019-06-07T03:26:14.656Z,94.64
2019-06-07T03:27:36.083Z,94.89
2019-06-07T03:28:16.502Z,94.89
2019-06-07T03:29:14.592Z,94.84
2019-06-07T03:31:15.613Z,94.64
2019-06-07T03:32:14.570Z,94.74
2019-06-07T03:33:14.784Z,94.64
2019-06-07T03:34:14.563Z,94.74
2019-06-07T03:35:14.670Z,94.74
2019-06-07T03:36:23.987Z,94.74
2019-06-07T03:37:15.508Z,94.89
2019-06-07T03:38:14.554Z,95.09
2019-06-07T03:39:14.563Z,95.20
2019-06-07T03:40:14.498Z,95.29
2019-06-07T03:41:14.483Z,95.29
2019-06-07T03:42:14.441Z,95.29
2019-06-07T03:43:14.458Z,95.29
2019-06-07T03:44:14.472Z,95.29
2019-06-07T03:45:14.770Z,95.40
2019-06-07T03:46:14.513Z,95.40
2019-06-07T03:47:15.409Z,95.61
2019-06-07T03:48:14.492Z,95.70
2019-06-07T03:49:14.373Z,95.40
2019-06-07T03:50:14.384Z,95.40
2019-06-07T03:51:24.511Z,95.29
2019-06-07T03:52:15.337Z,95.25
2019-06-07T03:53:14.478Z,95.15
2019-06-07T03:54:14.411Z,95.05
2019-06-07T03:55:14.388Z,95.15
2019-06-07T03:56:15.241Z,95.25
2019-06-07T03:57:14.334Z,95.25
2019-06-07T03:58:31.944Z,95.25
2019-06-07T03:59:15.433Z,95.15
2019-06-07T04:00:14.348Z,94.95
2019-06-07T04:01:14.222Z,94.59
2019-06-07T04:02:14.500Z,94.39
2019-06-07T04:03:33.067Z,94.39
2019-06-07T04:04:15.233Z,94.08
2019-06-07T04:05:14.214Z,94.08
2019-06-07T04:06:14.234Z,94.18
2019-06-07T04:07:14.183Z,93.98
2019-06-07T04:08:15.123Z,93.98
2019-06-07T04:09:14.141Z,94.08
2019-06-07T04:10:14.241Z,94.08
2019-06-07T04:11:14.217Z,94.18
2019-06-07T04:12:14.113Z,93.73
2019-06-07T04:13:14.155Z,93.52
2019-06-07T04:14:14.124Z,93.43
2019-06-07T04:15:14.095Z,93.52
2019-06-07T04:16:14.233Z,93.52
2019-06-07T04:17:14.187Z,93.52
2019-06-07T04:18:19.760Z,93.52
2019-06-07T04:19:14.165Z,93.43
2019-06-07T04:20:14.074Z,93.22
2019-06-07T04:21:14.003Z,93.12
2019-06-07T04:22:14.079Z,93.01
2019-06-07T04:23:27.630Z,93.12
2019-06-07T04:24:15.007Z,93.12
2019-06-07T04:25:14.082Z,92.91
2019-06-07T04:26:14.047Z,92.71
2019-06-07T04:27:13.969Z,92.77
2019-06-07T04:28:14.003Z,92.56
2019-06-07T04:30:14.998Z,92.36
2019-06-07T04:31:13.965Z,92.15
2019-06-07T04:32:13.979Z,91.95
2019-06-07T04:33:13.964Z,91.85
2019-06-07T04:34:13.953Z,91.85
2019-06-07T04:35:13.964Z,91.91
2019-06-07T04:36:13.915Z,92.01
2019-06-07T04:37:13.843Z,91.80
2019-06-07T04:38:14.098Z,91.70
2019-06-07T04:39:13.877Z,91.60
2019-06-07T04:40:13.985Z,91.29
2019-06-07T04:41:13.859Z,91.29
2019-06-07T04:42:13.930Z,91.19
2019-06-07T04:43:13.814Z,90.84
2019-06-07T04:44:13.813Z,90.64
2019-06-07T04:45:33.113Z,90.43
2019-06-07T04:46:15.060Z,90.43
2019-06-07T04:47:13.748Z,90.43
2019-06-07T04:48:13.754Z,90.64
2019-06-07T04:49:13.737Z,90.23
2019-06-07T04:50:13.724Z,90.74
2019-06-07T04:51:13.808Z,90.64
2019-06-07T04:52:13.673Z,90.23
2019-06-07T04:53:13.828Z,90.39
2019-06-07T04:54:13.704Z,90.49
2019-06-07T04:55:13.823Z,90.29
2019-06-07T04:56:13.671Z,90.19
2019-06-07T04:57:13.608Z,89.47
2019-06-07T04:58:13.641Z,89.37
2019-06-07T04:59:13.591Z,89.88
2019-06-07T05:00:46.625Z,90.08
2019-06-07T05:01:26.794Z,89.88
2019-06-07T05:02:14.600Z,89.78
2019-06-07T05:03:13.582Z,89.53
2019-06-07T05:04:13.710Z,89.32
2019-06-07T05:05:13.612Z,89.73
2019-06-07T05:06:13.608Z,89.94
2019-06-07T05:07:13.560Z,90.04
2019-06-07T05:08:27.621Z,88.88
2019-06-07T05:09:14.525Z,88.98
2019-06-07T05:10:13.464Z,88.88
2019-06-07T05:11:13.541Z,88.63
2019-06-07T05:12:13.525Z,87.71
2019-06-07T05:13:13.474Z,86.90
2019-06-07T05:14:13.480Z,86.86
2019-06-07T05:15:13.499Z,87.06
2019-06-07T05:16:13.436Z,87.06
2019-06-07T05:17:13.557Z,85.84
2019-06-07T05:18:13.409Z,85.90
2019-06-07T05:19:13.420Z,86.10
2019-06-07T05:20:13.430Z,85.69
2019-06-07T05:21:13.373Z,84.27
2019-06-07T05:22:13.437Z,85.19
2019-06-07T05:23:59.400Z,84.78
2019-06-07T05:24:14.334Z,85.08
2019-06-07T05:25:13.428Z,84.88
2019-06-07T05:26:14.485Z,84.74
2019-06-07T05:27:13.387Z,84.37
2019-06-07T05:28:13.365Z,84.58
2019-06-07T05:29:13.318Z,84.78
2019-06-07T05:30:57.732Z,84.58
2019-06-07T05:31:14.325Z,85.28
2019-06-07T05:32:13.308Z,84.58
2019-06-07T05:33:13.422Z,84.67
2019-06-07T05:34:13.376Z,84.98
2019-06-07T05:35:13.265Z,84.47
2019-06-07T05:36:13.242Z,84.98
2019-06-07T05:37:13.196Z,84.23
2019-06-07T05:38:13.293Z,85.00
2019-06-07T05:39:13.202Z,82.38
2019-06-07T05:40:13.186Z,81.56
2019-06-07T05:41:13.184Z,79.04
2019-06-07T05:42:13.342Z,76.54
2019-06-07T05:43:13.223Z,74.54
2019-06-07T05:44:14.980Z,72.51
2019-06-07T05:45:13.153Z,71.23
2019-06-07T05:46:13.150Z,69.89
2019-06-07T05:47:13.079Z,69.48
2019-06-07T05:48:13.344Z,69.62
2019-06-07T05:49:13.343Z,70.36
2019-06-07T05:50:38.659Z,71.53
2019-06-07T05:51:14.105Z,72.81
2019-06-07T05:52:13.087Z,74.54
2019-06-07T05:53:13.016Z,75.12
2019-06-07T05:54:13.929Z,75.96
2019-06-07T05:55:13.027Z,76.27
2019-06-07T05:56:13.398Z,76.78
2019-06-07T05:57:12.965Z,77.48
2019-06-07T05:58:13.083Z,77.86
2019-06-07T05:59:13.361Z,77.21
2019-06-07T06:00:13.339Z,76.16
2019-06-07T06:01:42.361Z,75.52
2019-06-07T06:02:22.169Z,75.76
2019-06-07T06:03:13.878Z,76.20
2019-06-07T06:04:12.848Z,75.28
2019-06-07T06:05:32.749Z,75.93
2019-06-07T06:06:13.936Z,76.03
2019-06-07T06:07:12.849Z,76.54
2019-06-07T06:08:12.955Z,76.98
2019-06-07T06:09:14.120Z,77.08
2019-06-07T06:10:12.821Z,78.50
2019-06-07T06:11:12.782Z,77.99
2019-06-07T06:12:12.771Z,79.27
2019-06-07T06:13:12.803Z,77.95
2019-06-07T06:14:12.779Z,80.29
2019-06-07T06:15:12.742Z,79.78
2019-06-07T06:16:12.746Z,78.87
2019-06-07T06:17:12.722Z,78.06
2019-06-07T06:18:12.690Z,79.74
2019-06-07T06:19:12.723Z,78.83
2019-06-07T06:20:12.702Z,78.33
2019-06-07T06:21:19.191Z,75.99
2019-06-07T06:22:13.682Z,76.94
2019-06-07T06:23:12.650Z,77.31
2019-06-07T06:24:12.632Z,78.83
2019-06-07T06:26:13.680Z,78.02
2019-06-07T06:27:41.374Z,78.53
2019-06-07T06:28:16.219Z,77.51
2019-06-07T06:29:12.601Z,76.20
2019-06-07T06:30:12.560Z,78.22
2019-06-07T06:31:12.834Z,76.50
2019-06-07T06:32:41.212Z,76.50
2019-06-07T06:33:30.485Z,78.93
2019-06-07T06:34:13.542Z,76.94
2019-06-07T06:35:12.532Z,76.94
2019-06-07T06:36:12.503Z,76.84
2019-06-07T06:37:12.637Z,77.82
2019-06-07T06:38:12.917Z,77.31
2019-06-07T06:39:13.309Z,77.21
2019-06-07T06:40:12.452Z,76.90
2019-06-07T06:41:16.323Z,77.61
2019-06-07T06:42:12.484Z,78.53
2019-06-07T06:43:12.488Z,76.80
2019-06-07T06:44:12.423Z,75.89
2019-06-07T06:45:12.436Z,76.77
2019-06-07T06:46:12.400Z,76.97
2019-06-07T06:47:12.412Z,76.97
2019-06-07T06:48:12.419Z,76.83
2019-06-07T06:49:14.717Z,76.43
2019-06-07T06:50:12.603Z,75.21
2019-06-07T06:51:13.007Z,74.57
2019-06-07T06:52:12.324Z,76.50
2019-06-07T06:53:13.500Z,75.68
2019-06-07T06:54:12.310Z,76.76
2019-06-07T06:55:12.304Z,74.94
2019-06-07T06:56:12.278Z,73.32
2019-06-07T06:57:19.536Z,73.52
2019-06-07T06:58:13.294Z,74.54
2019-06-07T06:59:37.467Z,75.92
2019-06-07T07:00:13.230Z,75.41
2019-06-07T07:01:12.249Z,76.59
2019-06-07T07:02:12.224Z,73.75
2019-06-07T07:04:13.801Z,73.62
2019-06-07T07:05:12.190Z,73.02
2019-06-07T07:06:25.237Z,72.14
2019-06-07T07:07:13.154Z,72.99
2019-06-07T07:08:12.152Z,73.99
2019-06-07T07:09:12.188Z,74.19
2019-06-07T07:10:12.146Z,73.75
2019-06-07T07:11:12.131Z,71.84
2019-06-07T07:12:14.831Z,73.15
2019-06-07T07:13:12.101Z,74.87
2019-06-07T07:14:12.185Z,74.66
2019-06-07T07:15:12.109Z,73.02
2019-06-07T07:16:12.066Z,73.35
2019-06-07T07:17:12.051Z,73.62
2019-06-07T07:18:12.059Z,73.72
2019-06-07T07:19:12.052Z,72.41
2019-06-07T07:20:12.042Z,72.81
2019-06-07T07:21:12.038Z,72.41
2019-06-07T07:22:12.050Z,73.11
2019-06-07T07:23:12.020Z,74.60
2019-06-07T07:24:21.502Z,71.97
2019-06-07T07:25:12.990Z,72.07
2019-06-07T07:26:12.024Z,71.57
2019-06-07T07:27:11.969Z,72.48
2019-06-07T07:28:11.950Z,72.68
2019-06-07T07:29:11.955Z,71.77
2019-06-07T07:31:12.897Z,69.95
2019-06-07T07:32:11.931Z,71.26
2019-06-07T07:33:11.891Z,71.13
2019-06-07T07:34:31.782Z,69.04
2019-06-07T07:35:12.871Z,70.76
2019-06-07T07:36:35.322Z,70.12
2019-06-07T07:37:12.849Z,69.31
2019-06-07T07:38:11.837Z,70.59
2019-06-07T07:39:11.821Z,70.86
2019-06-07T07:40:55.740Z,68.34
2019-06-07T07:41:15.477Z,67.94
2019-06-07T07:42:20.699Z,68.54
2019-06-07T07:43:12.771Z,71.73
2019-06-07T07:44:11.811Z,69.72
2019-06-07T07:45:11.771Z,71.60
2019-06-07T07:46:28.533Z,67.94
2019-06-07T07:47:12.727Z,67.84
2019-06-07T07:48:17.770Z,66.83
2019-06-07T07:49:12.753Z,65.53
2019-06-07T07:50:11.712Z,65.66
2019-06-07T07:51:11.681Z,65.73
2019-06-07T07:52:11.661Z,66.36
2019-06-07T07:53:11.660Z,64.78
2019-06-07T07:54:11.650Z,65.89
2019-06-07T07:55:11.831Z,65.79
2019-06-07T07:56:11.671Z,65.39
2019-06-07T07:57:11.621Z,67.50
2019-06-07T07:58:11.660Z,67.30
2019-06-07T07:59:11.588Z,66.27
2019-06-07T08:00:48.605Z,67.17
2019-06-07T08:01:12.559Z,66.97
2019-06-07T08:02:11.579Z,66.06
2019-06-07T08:03:11.616Z,66.56
2019-06-07T08:04:11.591Z,66.67
2019-06-07T08:05:23.247Z,66.30
2019-06-07T08:06:12.510Z,65.99
2019-06-07T08:07:11.566Z,68.08
2019-06-07T08:08:11.599Z,66.47
2019-06-07T08:09:11.526Z,65.96
2019-06-07T08:10:11.485Z,69.65
2019-06-07T08:11:12.863Z,67.34
2019-06-07T08:12:11.482Z,64.19
2019-06-07T08:13:24.941Z,64.59
2019-06-07T08:14:12.449Z,63.82
2019-06-07T08:15:11.457Z,62.91
2019-06-07T08:16:16.086Z,64.09
2019-06-07T08:17:12.436Z,62.58
2019-06-07T08:18:11.479Z,65.30
2019-06-07T08:19:13.077Z,63.28
2019-06-07T08:20:11.490Z,65.36
2019-06-07T08:21:24.610Z,63.76
2019-06-07T08:22:12.348Z,62.24
2019-06-07T08:23:11.338Z,63.05
2019-06-07T08:24:11.355Z,62.85
2019-06-07T08:25:11.331Z,64.33
2019-06-07T08:26:11.375Z,60.94
2019-06-07T08:27:25.855Z,62.15
2019-06-07T08:28:12.292Z,62.45
2019-06-07T08:29:11.260Z,60.44
2019-06-07T08:30:46.429Z,60.08
2019-06-07T08:31:12.240Z,60.45
2019-06-07T08:32:11.268Z,58.01
2019-06-07T08:33:25.538Z,58.01
2019-06-07T08:34:12.213Z,57.28
2019-06-07T08:35:11.234Z,56.18
2019-06-07T08:36:19.877Z,55.80
2019-06-07T08:37:12.493Z,56.45
2019-06-07T08:38:26.041Z,54.47
2019-06-07T08:39:12.166Z,52.79
2019-06-07T08:40:11.165Z,53.27
2019-06-07T08:41:12.633Z,52.42
2019-06-07T08:42:17.771Z,53.54
2019-06-07T08:43:20.382Z,52.00
2019-06-07T08:44:23.211Z,50.07
2019-06-07T08:45:12.104Z,52.09
2019-06-07T08:46:11.185Z,52.19
2019-06-07T08:47:20.095Z,50.75
2019-06-07T08:48:26.990Z,53.24
2019-06-07T08:49:12.065Z,50.38
2019-06-07T08:50:11.044Z,51.35
2019-06-07T08:51:11.053Z,49.38
2019-06-07T08:52:12.465Z,50.18
2019-06-07T08:53:12.315Z,49.18
2019-06-07T08:54:22.452Z,48.79
2019-06-07T08:55:11.991Z,51.35
2019-06-07T08:56:11.747Z,50.82
2019-06-07T08:57:20.672Z,51.00
2019-06-07T08:58:12.019Z,47.97
2019-06-07T08:59:11.736Z,47.57
2019-06-07T09:00:42.220Z,48.37
2019-06-07T09:01:11.957Z,47.00
2019-06-07T09:02:23.370Z,47.99
2019-06-07T09:03:15.978Z,47.80
2019-06-07T09:04:11.504Z,47.89
2019-06-07T09:05:12.522Z,47.13
2019-06-07T09:06:54.045Z,48.71
2019-06-07T09:07:19.576Z,49.48
2019-06-07T09:08:29.065Z,48.24
2019-06-07T09:09:11.899Z,48.32
2019-06-07T09:10:14.604Z,48.38
2019-06-07T09:11:11.601Z,49.46
2019-06-07T09:12:11.689Z,47.54
2019-06-07T09:13:11.977Z,47.25
2019-06-07T09:14:10.839Z,48.38
2019-06-07T09:15:21.363Z,48.46
2019-06-07T09:16:11.818Z,49.80
2019-06-07T09:17:12.478Z,48.25
2019-06-07T09:18:37.966Z,46.81
2019-06-07T09:19:11.972Z,45.20
2019-06-07T09:20:35.153Z,46.30
2019-06-07T09:21:11.838Z,44.68
2019-06-07T09:22:11.887Z,46.97
2019-06-07T09:23:16.651Z,44.56
2019-06-07T09:24:12.233Z,44.29
2019-06-07T09:25:20.584Z,45.48
2019-06-07T09:26:18.246Z,46.97
2019-06-07T09:27:11.746Z,45.30
2019-06-07T09:28:19.144Z,45.74
2019-06-07T09:29:12.238Z,48.14
2019-06-07T09:30:16.455Z,46.71
2019-06-07T09:31:12.664Z,47.80
2019-06-07T09:32:15.970Z,46.89
2019-06-07T09:33:12.436Z,45.74
2019-06-07T09:34:14.701Z,46.66
2019-06-07T09:35:16.826Z,47.63
2019-06-07T09:36:13.270Z,46.53
2019-06-07T09:38:03.061Z,45.74
2019-06-07T09:38:24.326Z,49.19
2019-06-07T09:39:12.706Z,47.49
2019-06-07T09:40:24.313Z,47.47
2019-06-07T09:41:11.571Z,47.70
2019-06-07T09:42:12.577Z,46.78
2019-06-07T09:44:23.969Z,46.33
2019-06-07T09:45:13.961Z,48.21
2019-06-07T09:46:14.856Z,48.58
2019-06-07T09:47:30.684Z,52.22
2019-06-07T09:48:15.947Z,51.82
2019-06-07T09:49:21.214Z,50.62
2019-06-07T09:50:12.390Z,48.64
2019-06-07T09:51:19.261Z,48.59
2019-06-07T09:52:11.480Z,47.08
2019-06-07T09:53:21.925Z,46.28
2019-06-07T09:54:17.739Z,47.00
2019-06-07T09:55:22.990Z,46.26
2019-06-07T09:56:12.318Z,46.48
2019-06-07T09:57:16.595Z,46.28
2019-06-07T09:58:48.622Z,47.89
2019-06-07T09:59:13.031Z,47.28
2019-06-07T10:00:36.799Z,46.53
2019-06-07T10:01:13.670Z,46.91
2019-06-07T10:02:13.708Z,46.16
2019-06-07T10:03:20.557Z,47.17
2019-06-07T10:04:28.196Z,47.25
2019-06-07T10:05:14.103Z,48.16
2019-06-07T10:06:13.728Z,48.83
2019-06-07T10:07:28.603Z,47.02
2019-06-07T10:08:54.646Z,47.57
2019-06-07T10:10:09.329Z,48.25
2019-06-07T10:11:11.362Z,48.20
2019-06-07T10:12:10.319Z,47.55
2019-06-07T10:13:10.494Z,47.13
2019-06-07T10:14:10.221Z,48.57
2019-06-07T10:15:10.375Z,49.44
2019-06-07T10:16:10.256Z,45.06
2019-06-07T10:17:10.259Z,45.04
2019-06-07T10:18:10.224Z,44.15
2019-06-07T10:19:10.353Z,47.00
2019-06-07T10:20:10.356Z,44.46
2019-06-07T10:21:14.756Z,45.25
2019-06-07T10:22:11.191Z,47.70
2019-06-07T10:23:10.206Z,47.75
2019-06-07T10:24:10.182Z,47.78
2019-06-07T10:25:10.609Z,45.82
2019-06-07T10:26:10.234Z,48.82
2019-06-07T10:27:10.189Z,46.05
2019-06-07T10:28:10.334Z,45.16
2019-06-07T10:29:10.349Z,46.82
2019-06-07T10:30:10.416Z,44.64
2019-06-07T10:31:11.429Z,46.51
2019-06-07T10:32:11.229Z,46.61
2019-06-07T10:33:10.505Z,48.15
2019-06-07T10:34:10.901Z,45.64
2019-06-07T10:35:13.766Z,48.79
2019-06-07T10:36:11.019Z,49.56
2019-06-07T10:37:14.957Z,49.93
2019-06-07T10:38:10.969Z,51.30
2019-06-07T10:39:11.382Z,49.32
2019-06-07T10:40:11.239Z,49.09
2019-06-07T10:41:11.123Z,47.16
2019-06-07T10:42:11.486Z,50.85
2019-06-07T10:43:13.432Z,50.05
2019-06-07T10:44:11.337Z,49.21
2019-06-07T10:45:11.850Z,48.61
2019-06-07T10:46:10.132Z,50.73
2019-06-07T10:47:10.113Z,48.26
2019-06-07T10:48:10.343Z,54.11
2019-06-07T10:49:10.172Z,53.91
2019-06-07T10:50:10.373Z,50.70
2019-06-07T10:51:13.677Z,53.76
2019-06-07T10:52:11.487Z,53.14
2019-06-07T10:53:10.766Z,51.05
2019-06-07T10:54:21.936Z,49.98
2019-06-07T10:55:10.915Z,48.99
2019-06-07T10:56:11.063Z,50.01
2019-06-07T10:57:13.803Z,51.50
2019-06-07T10:58:11.199Z,49.31
2019-06-07T10:59:11.589Z,49.78
2019-06-07T11:00:11.504Z,47.50
2019-06-07T11:01:09.751Z,49.68
2019-06-07T11:02:09.819Z,50.40
2019-06-07T11:03:09.965Z,51.60
2019-06-07T11:04:09.719Z,49.46
2019-06-07T11:05:10.072Z,50.40
2019-06-07T11:06:10.131Z,47.21
2019-06-07T11:07:10.131Z,48.05
2019-06-07T11:08:10.213Z,48.59
2019-06-07T11:09:10.028Z,51.00
2019-06-07T11:10:15.610Z,50.01
2019-06-07T11:11:12.081Z,49.21
2019-06-07T11:12:10.732Z,49.33
2019-06-07T11:13:10.413Z,48.69
2019-06-07T11:14:10.595Z,48.47
2019-06-07T11:15:10.979Z,49.02
2019-06-07T11:16:11.092Z,46.59
2019-06-07T11:17:11.176Z,46.12
2019-06-07T11:18:10.306Z,46.79
2019-06-07T11:19:13.896Z,46.17
2019-06-07T11:20:12.316Z,45.48
2019-06-07T11:21:10.052Z,44.94
2019-06-07T11:22:10.167Z,46.23
2019-06-07T11:23:10.116Z,47.77
2019-06-07T11:24:10.193Z,45.67
2019-06-07T11:25:10.846Z,45.42
2019-06-07T11:26:10.292Z,42.85
2019-06-07T11:27:11.156Z,44.31
2019-06-07T11:28:10.586Z,44.48
2019-06-07T11:29:10.879Z,43.96
2019-06-07T11:30:10.558Z,44.24
2019-06-07T11:31:10.787Z,42.72
2019-06-07T11:32:10.566Z,43.07
2019-06-07T11:33:12.060Z,44.85
2019-06-07T11:34:10.441Z,42.58
2019-06-07T11:35:10.618Z,42.14
2019-06-07T11:36:10.710Z,42.11
2019-06-07T11:37:11.050Z,46.14
2019-06-07T11:38:10.574Z,43.90
2019-06-07T11:39:10.900Z,42.38
2019-06-07T11:40:27.865Z,41.02
2019-06-07T11:41:11.488Z,42.21
2019-06-07T11:42:09.917Z,41.89
2019-06-07T11:43:10.658Z,41.71
2019-06-07T11:44:10.865Z,43.51
2019-06-07T11:45:10.521Z,41.47
2019-06-07T11:46:09.412Z,43.65
2019-06-07T11:47:10.445Z,41.65
2019-06-07T11:48:09.320Z,42.58
2019-06-07T11:49:10.875Z,42.68
2019-06-07T11:50:09.570Z,42.74
2019-06-07T11:51:10.677Z,42.25
2019-06-07T11:52:11.421Z,43.46
2019-06-07T11:53:10.625Z,42.84
2019-06-07T11:54:09.689Z,42.50
2019-06-07T11:55:10.966Z,42.40
2019-06-07T11:56:10.309Z,42.62
2019-06-07T11:57:09.296Z,46.01
2019-06-07T11:58:13.174Z,41.59
2019-06-07T11:59:11.202Z,43.87
2019-06-07T12:00:09.405Z,41.95
2019-06-07T12:01:09.608Z,44.79
2019-06-07T12:02:09.195Z,45.90
2019-06-07T12:03:09.491Z,39.76
2019-06-07T12:04:09.551Z,39.18
2019-06-07T12:05:10.402Z,42.16
2019-06-07T12:06:09.985Z,40.37
2019-06-07T12:07:10.843Z,40.25
2019-06-07T12:08:10.033Z,41.33
2019-06-07T12:09:10.641Z,41.33
2019-06-07T12:10:10.598Z,41.71
2019-06-07T12:11:10.123Z,40.50
2019-06-07T12:12:10.257Z,41.20
2019-06-07T12:13:10.368Z,41.46
2019-06-07T12:14:10.866Z,41.43
2019-06-07T12:15:09.152Z,39.06
2019-06-07T12:16:09.166Z,40.82
2019-06-07T12:17:09.113Z,40.80
2019-06-07T12:18:09.302Z,42.56
2019-06-07T12:19:09.640Z,40.29
2019-06-07T12:20:10.809Z,40.11
2019-06-07T12:21:09.575Z,41.02
2019-06-07T12:22:09.854Z,40.31
2019-06-07T12:23:10.013Z,42.19
2019-06-07T12:24:10.207Z,42.56
2019-06-07T12:25:10.173Z,42.82
2019-06-07T12:26:10.173Z,42.77
2019-06-07T12:27:10.115Z,40.98
2019-06-07T12:28:08.940Z,39.64
2019-06-07T12:29:08.901Z,39.76
2019-06-07T12:30:17.510Z,41.14
2019-06-07T12:31:10.847Z,40.23
2019-06-07T12:32:08.855Z,38.85
2019-06-07T12:33:08.899Z,39.54
2019-06-07T12:34:08.823Z,39.97
2019-06-07T12:35:08.895Z,45.52
2019-06-07T12:36:08.918Z,44.76
2019-06-07T12:37:08.830Z,41.06
2019-06-07T12:38:08.833Z,38.66
2019-06-07T12:39:08.786Z,39.74
2019-06-07T12:40:09.118Z,40.70
2019-06-07T12:41:08.783Z,36.44
2019-06-07T12:42:08.814Z,38.13
2019-06-07T12:43:08.883Z,36.00
2019-06-07T12:44:08.862Z,36.49
2019-06-07T12:45:08.734Z,36.51
2019-06-07T12:46:08.776Z,38.14
2019-06-07T12:47:08.845Z,40.29
2019-06-07T12:48:08.835Z,37.19
2019-06-07T12:49:08.718Z,39.26
2019-06-07T12:50:08.749Z,37.45
2019-06-07T12:51:08.967Z,38.85
2019-06-07T12:52:08.669Z,38.39
2019-06-07T12:53:08.736Z,40.82
2019-06-07T12:54:08.717Z,38.35
2019-06-07T12:55:08.784Z,37.57
2019-06-07T12:56:09.534Z,37.07
2019-06-07T12:57:08.657Z,37.32
2019-06-07T12:58:08.719Z,38.89
2019-06-07T12:59:08.733Z,37.70
2019-06-07T13:00:08.793Z,40.23
2019-06-07T13:01:08.633Z,38.40
2019-06-07T13:02:08.720Z,36.48
2019-06-07T13:03:09.031Z,38.59